sensor_id;sensor_type;location;lat;lon;timestamp;P1;durP1;ratioP1;P2;durP2;ratioP2
26600;SDS011;14241;49.260;10.496;2023-04-01T00:01:16;2.60;;;0.80;;
26600;SDS011;14241;49.260;10.496;2023-04-01T00:03:41;1.38;;;0.65;;
26600;SDS011;14241;49.260;10.496;2023-04-01T00:06:06;2.30;;;0.70;;
26600;SDS011;14241;49.260;10.496;2023-04-01T00:08:32;2.72;;;0.93;;
26600;SDS011;14241;49.260;10.496;2023-04-01T00:10:57;1.27;;;0.60;;
26600;SDS011;14241;49.260;10.496;2023-04-01T00:13:23;4.05;;;0.82;;
26600;SDS011;14241;49.260;10.496;2023-04-01T00:15:48;2.63;;;0.93;;
26600;SDS011;14241;49.260;10.496;2023-04-01T00:18:13;2.80;;;0.70;;
26600;SDS011;14241;49.260;10.496;2023-04-01T00:20:38;3.67;;;0.70;;
26600;SDS011;14241;49.260;10.496;2023-04-01T00:23:04;3.50;;;1.15;;
26600;SDS011;14241;49.260;10.496;2023-04-01T00:25:30;2.13;;;0.95;;
26600;SDS011;14241;49.260;10.496;2023-04-01T00:27:56;1.83;;;0.70;;
26600;SDS011;14241;49.260;10.496;2023-04-01T00:30:21;3.85;;;1.00;;
26600;SDS011;14241;49.260;10.496;2023-04-01T00:32:46;2.38;;;0.90;;
26600;SDS011;14241;49.260;10.496;2023-04-01T00:35:11;2.70;;;0.77;;
26600;SDS011;14241;49.260;10.496;2023-04-01T00:37:37;2.13;;;0.70;;
26600;SDS011;14241;49.260;10.496;2023-04-01T00:40:04;3.75;;;0.82;;
26600;SDS011;14241;49.260;10.496;2023-04-01T00:42:30;3.45;;;1.15;;
26600;SDS011;14241;49.260;10.496;2023-04-01T00:44:55;1.67;;;0.70;;
26600;SDS011;14241;49.260;10.496;2023-04-01T00:47:21;2.08;;;0.70;;
26600;SDS011;14241;49.260;10.496;2023-04-01T00:49:48;2.03;;;0.93;;
26600;SDS011;14241;49.260;10.496;2023-04-01T00:52:16;3.42;;;0.80;;
26600;SDS011;14241;49.260;10.496;2023-04-01T00:54:43;1.00;;;0.77;;
26600;SDS011;14241;49.260;10.496;2023-04-01T00:57:13;3.75;;;0.70;;
26600;SDS011;14241;49.260;10.496;2023-04-01T00:59:41;3.40;;;0.70;;
26600;SDS011;14241;49.260;10.496;2023-04-01T01:02:07;1.20;;;0.70;;
26600;SDS011;14241;49.260;10.496;2023-04-01T01:04:33;2.55;;;0.80;;
26600;SDS011;14241;49.260;10.496;2023-04-01T01:11:54;2.40;;;0.77;;
26600;SDS011;14241;49.260;10.496;2023-04-01T01:15:05;1.60;;;0.75;;
26600;SDS011;14241;49.260;10.496;2023-04-01T01:27:20;2.97;;;0.87;;
26600;SDS011;14241;49.260;10.496;2023-04-01T01:37:18;2.53;;;0.75;;
26600;SDS011;14241;49.260;10.496;2023-04-01T01:39:46;2.17;;;0.75;;
26600;SDS011;14241;49.260;10.496;2023-04-01T01:42:13;2.40;;;0.80;;
26600;SDS011;14241;49.260;10.496;2023-04-01T01:44:40;2.33;;;0.80;;
26600;SDS011;14241;49.260;10.496;2023-04-01T01:47:07;3.47;;;0.77;;
26600;SDS011;14241;49.260;10.496;2023-04-01T01:49:32;1.95;;;0.63;;
26600;SDS011;14241;49.260;10.496;2023-04-01T01:51:58;2.92;;;0.82;;
26600;SDS011;14241;49.260;10.496;2023-04-01T01:54:23;2.63;;;0.77;;
26600;SDS011;14241;49.260;10.496;2023-04-01T01:56:50;4.57;;;0.80;;
26600;SDS011;14241;49.260;10.496;2023-04-01T01:59:17;2.58;;;0.68;;
26600;SDS011;14241;49.260;10.496;2023-04-01T02:01:43;2.72;;;0.85;;
26600;SDS011;14241;49.260;10.496;2023-04-01T02:04:10;3.00;;;0.95;;
26600;SDS011;14241;49.260;10.496;2023-04-01T02:06:37;7.20;;;1.08;;
26600;SDS011;14241;49.260;10.496;2023-04-01T02:09:04;2.92;;;0.85;;
26600;SDS011;14241;49.260;10.496;2023-04-01T02:11:31;2.92;;;1.00;;
26600;SDS011;14241;49.260;10.496;2023-04-01T02:14:10;1.90;;;0.70;;
26600;SDS011;14241;49.260;10.496;2023-04-01T02:16:39;2.22;;;0.70;;
26600;SDS011;14241;49.260;10.496;2023-04-01T02:19:06;2.58;;;1.13;;
26600;SDS011;14241;49.260;10.496;2023-04-01T02:21:35;3.88;;;0.60;;
26600;SDS011;14241;49.260;10.496;2023-04-01T02:24:01;2.90;;;1.00;;
26600;SDS011;14241;49.260;10.496;2023-04-01T02:26:27;4.40;;;0.90;;
26600;SDS011;14241;49.260;10.496;2023-04-01T02:28:52;2.45;;;0.90;;
26600;SDS011;14241;49.260;10.496;2023-04-01T02:31:18;3.88;;;1.20;;
26600;SDS011;14241;49.260;10.496;2023-04-01T02:33:44;4.65;;;1.08;;
26600;SDS011;14241;49.260;10.496;2023-04-01T02:36:11;2.85;;;1.20;;
26600;SDS011;14241;49.260;10.496;2023-04-01T02:38:37;3.60;;;1.00;;
26600;SDS011;14241;49.260;10.496;2023-04-01T02:41:02;5.63;;;1.10;;
26600;SDS011;14241;49.260;10.496;2023-04-01T02:43:27;5.60;;;1.10;;
26600;SDS011;14241;49.260;10.496;2023-04-01T02:45:53;3.70;;;0.85;;
26600;SDS011;14241;49.260;10.496;2023-04-01T02:48:18;6.18;;;1.05;;
26600;SDS011;14241;49.260;10.496;2023-04-01T02:50:43;3.40;;;1.10;;
26600;SDS011;14241;49.260;10.496;2023-04-01T02:53:09;2.38;;;0.80;;
26600;SDS011;14241;49.260;10.496;2023-04-01T02:55:34;3.63;;;0.95;;
26600;SDS011;14241;49.260;10.496;2023-04-01T02:57:59;3.58;;;1.10;;
26600;SDS011;14241;49.260;10.496;2023-04-01T03:00:25;3.42;;;0.70;;
26600;SDS011;14241;49.260;10.496;2023-04-01T03:02:50;4.70;;;0.93;;
26600;SDS011;14241;49.260;10.496;2023-04-01T03:05:15;4.55;;;0.90;;
26600;SDS011;14241;49.260;10.496;2023-04-01T03:07:42;3.47;;;0.77;;
26600;SDS011;14241;49.260;10.496;2023-04-01T03:10:07;3.40;;;0.90;;
26600;SDS011;14241;49.260;10.496;2023-04-01T03:12:32;3.60;;;0.80;;
26600;SDS011;14241;49.260;10.496;2023-04-01T03:14:58;3.65;;;1.10;;
26600;SDS011;14241;49.260;10.496;2023-04-01T03:17:23;2.70;;;0.77;;
26600;SDS011;14241;49.260;10.496;2023-04-01T03:19:48;4.63;;;1.20;;
26600;SDS011;14241;49.260;10.496;2023-04-01T03:22:13;4.07;;;1.20;;
26600;SDS011;14241;49.260;10.496;2023-04-01T03:24:38;1.83;;;0.57;;
26600;SDS011;14241;49.260;10.496;2023-04-01T03:27:04;2.42;;;1.00;;
26600;SDS011;14241;49.260;10.496;2023-04-01T03:29:29;7.38;;;3.67;;
26600;SDS011;14241;49.260;10.496;2023-04-01T03:31:55;3.45;;;1.30;;
26600;SDS011;14241;49.260;10.496;2023-04-01T03:34:23;4.63;;;1.30;;
26600;SDS011;14241;49.260;10.496;2023-04-01T03:36:48;1.90;;;1.10;;
26600;SDS011;14241;49.260;10.496;2023-04-01T03:39:13;2.95;;;1.33;;
26600;SDS011;14241;49.260;10.496;2023-04-01T03:41:38;2.35;;;1.25;;
26600;SDS011;14241;49.260;10.496;2023-04-01T03:44:04;2.70;;;1.75;;
26600;SDS011;14241;49.260;10.496;2023-04-01T03:46:29;7.40;;;2.88;;
26600;SDS011;14241;49.260;10.496;2023-04-01T03:48:54;3.55;;;1.50;;
26600;SDS011;14241;49.260;10.496;2023-04-01T03:51:20;4.00;;;1.03;;
26600;SDS011;14241;49.260;10.496;2023-04-01T03:53:45;2.40;;;1.10;;
26600;SDS011;14241;49.260;10.496;2023-04-01T03:56:10;3.05;;;1.25;;
26600;SDS011;14241;49.260;10.496;2023-04-01T03:58:36;1.83;;;1.25;;
26600;SDS011;14241;49.260;10.496;2023-04-01T04:01:01;3.47;;;1.30;;
26600;SDS011;14241;49.260;10.496;2023-04-01T04:03:27;1.60;;;0.90;;
26600;SDS011;14241;49.260;10.496;2023-04-01T04:05:53;3.55;;;0.90;;
26600;SDS011;14241;49.260;10.496;2023-04-01T04:08:18;3.25;;;1.00;;
26600;SDS011;14241;49.260;10.496;2023-04-01T04:10:43;3.70;;;1.13;;
26600;SDS011;14241;49.260;10.496;2023-04-01T04:13:09;1.42;;;0.73;;
26600;SDS011;14241;49.260;10.496;2023-04-01T04:15:34;2.83;;;0.70;;
26600;SDS011;14241;49.260;10.496;2023-04-01T04:17:59;2.17;;;1.00;;
26600;SDS011;14241;49.260;10.496;2023-04-01T04:20:25;1.87;;;0.80;;
26600;SDS011;14241;49.260;10.496;2023-04-01T04:22:50;1.53;;;0.83;;
26600;SDS011;14241;49.260;10.496;2023-04-01T04:25:15;0.80;;;0.80;;
26600;SDS011;14241;49.260;10.496;2023-04-01T04:27:40;1.47;;;0.80;;
26600;SDS011;14241;49.260;10.496;2023-04-01T04:30:06;3.35;;;0.85;;
26600;SDS011;14241;49.260;10.496;2023-04-01T04:32:32;2.95;;;0.80;;
26600;SDS011;14241;49.260;10.496;2023-04-01T04:34:57;1.45;;;0.70;;
26600;SDS011;14241;49.260;10.496;2023-04-01T04:37:22;2.42;;;0.88;;
26600;SDS011;14241;49.260;10.496;2023-04-01T04:39:48;2.65;;;0.90;;
26600;SDS011;14241;49.260;10.496;2023-04-01T04:42:13;3.13;;;0.85;;
26600;SDS011;14241;49.260;10.496;2023-04-01T04:44:38;3.58;;;0.93;;
26600;SDS011;14241;49.260;10.496;2023-04-01T04:47:04;4.55;;;1.00;;
26600;SDS011;14241;49.260;10.496;2023-04-01T04:49:29;5.22;;;0.68;;
26600;SDS011;14241;49.260;10.496;2023-04-01T04:51:55;1.27;;;0.68;;
26600;SDS011;14241;49.260;10.496;2023-04-01T04:54:20;1.98;;;0.60;;
26600;SDS011;14241;49.260;10.496;2023-04-01T04:56:45;2.63;;;0.73;;
26600;SDS011;14241;49.260;10.496;2023-04-01T04:59:10;1.88;;;0.77;;
26600;SDS011;14241;49.260;10.496;2023-04-01T05:01:37;1.50;;;0.80;;
26600;SDS011;14241;49.260;10.496;2023-04-01T05:04:02;0.98;;;0.70;;
26600;SDS011;14241;49.260;10.496;2023-04-01T05:06:28;1.08;;;0.68;;
26600;SDS011;14241;49.260;10.496;2023-04-01T05:08:54;0.95;;;0.70;;
26600;SDS011;14241;49.260;10.496;2023-04-01T05:11:20;2.25;;;0.50;;
26600;SDS011;14241;49.260;10.496;2023-04-01T05:13:45;1.85;;;0.70;;
26600;SDS011;14241;49.260;10.496;2023-04-01T05:16:12;0.65;;;0.65;;
26600;SDS011;14241;49.260;10.496;2023-04-01T05:18:37;1.85;;;0.60;;
26600;SDS011;14241;49.260;10.496;2023-04-01T05:21:03;1.27;;;0.73;;
26600;SDS011;14241;49.260;10.496;2023-04-01T05:23:30;1.70;;;0.70;;
26600;SDS011;14241;49.260;10.496;2023-04-01T05:25:56;2.92;;;0.73;;
26600;SDS011;14241;49.260;10.496;2023-04-01T05:28:22;1.85;;;0.60;;
26600;SDS011;14241;49.260;10.496;2023-04-01T05:30:47;3.03;;;1.05;;
26600;SDS011;14241;49.260;10.496;2023-04-01T05:33:13;2.53;;;0.70;;
26600;SDS011;14241;49.260;10.496;2023-04-01T05:35:40;1.92;;;0.90;;
26600;SDS011;14241;49.260;10.496;2023-04-01T05:38:05;1.20;;;0.50;;
26600;SDS011;14241;49.260;10.496;2023-04-01T05:40:31;2.35;;;0.80;;
26600;SDS011;14241;49.260;10.496;2023-04-01T05:42:56;1.80;;;0.70;;
26600;SDS011;14241;49.260;10.496;2023-04-01T05:45:21;1.53;;;0.67;;
26600;SDS011;14241;49.260;10.496;2023-04-01T05:47:47;0.70;;;0.60;;
26600;SDS011;14241;49.260;10.496;2023-04-01T05:50:12;1.85;;;0.88;;
26600;SDS011;14241;49.260;10.496;2023-04-01T05:52:37;2.33;;;0.60;;
26600;SDS011;14241;49.260;10.496;2023-04-01T05:55:03;2.42;;;0.80;;
26600;SDS011;14241;49.260;10.496;2023-04-01T05:57:28;1.88;;;0.95;;
26600;SDS011;14241;49.260;10.496;2023-04-01T05:59:54;1.42;;;0.65;;
26600;SDS011;14241;49.260;10.496;2023-04-01T06:02:20;1.42;;;0.73;;
26600;SDS011;14241;49.260;10.496;2023-04-01T06:04:45;2.15;;;1.00;;
26600;SDS011;14241;49.260;10.496;2023-04-01T06:07:11;3.63;;;0.68;;
26600;SDS011;14241;49.260;10.496;2023-04-01T06:09:37;3.38;;;0.85;;
26600;SDS011;14241;49.260;10.496;2023-04-01T06:23:07;1.25;;;0.63;;
26600;SDS011;14241;49.260;10.496;2023-04-01T06:25:39;2.38;;;0.70;;
26600;SDS011;14241;49.260;10.496;2023-04-01T06:33:46;3.30;;;0.88;;
26600;SDS011;14241;49.260;10.496;2023-04-01T06:43:41;1.92;;;0.60;;
26600;SDS011;14241;49.260;10.496;2023-04-01T06:48:42;2.38;;;0.73;;
26600;SDS011;14241;49.260;10.496;2023-04-01T06:53:43;1.83;;;0.60;;
26600;SDS011;14241;49.260;10.496;2023-04-01T06:56:10;1.45;;;0.55;;
26600;SDS011;14241;49.260;10.496;2023-04-01T06:59:20;2.05;;;0.65;;
26600;SDS011;14241;49.260;10.496;2023-04-01T07:01:28;2.03;;;0.82;;
26600;SDS011;14241;49.260;10.496;2023-04-01T07:06:36;1.65;;;0.80;;
26600;SDS011;14241;49.260;10.496;2023-04-01T07:09:05;1.23;;;0.60;;
26600;SDS011;14241;49.260;10.496;2023-04-01T07:11:32;1.70;;;0.80;;
26600;SDS011;14241;49.260;10.496;2023-04-01T07:21:52;3.30;;;0.88;;
26600;SDS011;14241;49.260;10.496;2023-04-01T07:26:44;3.17;;;0.70;;
26600;SDS011;14241;49.260;10.496;2023-04-01T07:29:11;2.50;;;0.90;;
26600;SDS011;14241;49.260;10.496;2023-04-01T07:36:53;1.30;;;0.60;;
26600;SDS011;14241;49.260;10.496;2023-04-01T07:39:30;1.60;;;0.85;;
26600;SDS011;14241;49.260;10.496;2023-04-01T07:52:16;1.67;;;0.60;;
26600;SDS011;14241;49.260;10.496;2023-04-01T07:54:46;1.30;;;0.75;;
26600;SDS011;14241;49.260;10.496;2023-04-01T07:57:30;1.80;;;0.70;;
26600;SDS011;14241;49.260;10.496;2023-04-01T08:00:11;3.40;;;0.70;;
26600;SDS011;14241;49.260;10.496;2023-04-01T08:02:50;1.02;;;0.50;;
26600;SDS011;14241;49.260;10.496;2023-04-01T08:05:26;1.75;;;0.70;;
26600;SDS011;14241;49.260;10.496;2023-04-01T08:20:41;4.88;;;0.85;;
26600;SDS011;14241;49.260;10.496;2023-04-01T08:25:40;0.70;;;0.40;;
26600;SDS011;14241;49.260;10.496;2023-04-01T08:31:11;1.83;;;0.40;;
26600;SDS011;14241;49.260;10.496;2023-04-01T08:33:37;0.73;;;0.43;;
26600;SDS011;14241;49.260;10.496;2023-04-01T08:36:08;2.72;;;0.50;;
26600;SDS011;14241;49.260;10.496;2023-04-01T08:41:48;2.08;;;0.40;;
26600;SDS011;14241;49.260;10.496;2023-04-01T08:43:51;1.77;;;0.75;;
26600;SDS011;14241;49.260;10.496;2023-04-01T08:46:32;1.20;;;0.47;;
26600;SDS011;14241;49.260;10.496;2023-04-01T08:51:48;0.60;;;0.50;;
26600;SDS011;14241;49.260;10.496;2023-04-01T08:54:25;1.08;;;0.65;;
26600;SDS011;14241;49.260;10.496;2023-04-01T08:59:37;0.82;;;0.60;;
26600;SDS011;14241;49.260;10.496;2023-04-01T09:07:05;1.20;;;0.50;;
26600;SDS011;14241;49.260;10.496;2023-04-01T09:09:40;2.72;;;0.80;;
26600;SDS011;14241;49.260;10.496;2023-04-01T09:14:53;1.63;;;0.65;;
26600;SDS011;14241;49.260;10.496;2023-04-01T09:38:47;1.38;;;0.35;;
26600;SDS011;14241;49.260;10.496;2023-04-01T09:41:31;0.68;;;0.50;;
26600;SDS011;14241;49.260;10.496;2023-04-01T09:46:43;0.68;;;0.43;;
26600;SDS011;14241;49.260;10.496;2023-04-01T10:20:34;0.77;;;0.57;;
26600;SDS011;14241;49.260;10.496;2023-04-01T10:28:47;3.17;;;0.90;;
26600;SDS011;14241;49.260;10.496;2023-04-01T10:34:22;0.90;;;0.47;;
26600;SDS011;14241;49.260;10.496;2023-04-01T10:36:52;0.43;;;0.38;;
26600;SDS011;14241;49.260;10.496;2023-04-01T10:58:17;0.32;;;0.32;;
26600;SDS011;14241;49.260;10.496;2023-04-01T11:00:25;2.83;;;0.32;;
26600;SDS011;14241;49.260;10.496;2023-04-01T11:13:54;0.47;;;0.43;;
26600;SDS011;14241;49.260;10.496;2023-04-01T11:31:50;0.73;;;0.60;;
26600;SDS011;14241;49.260;10.496;2023-04-01T11:45:33;0.70;;;0.40;;
26600;SDS011;14241;49.260;10.496;2023-04-01T11:47:38;0.43;;;0.40;;
26600;SDS011;14241;49.260;10.496;2023-04-01T12:11:07;0.75;;;0.32;;
26600;SDS011;14241;49.260;10.496;2023-04-01T12:21:29;0.30;;;0.30;;
26600;SDS011;14241;49.260;10.496;2023-04-01T12:26:41;0.50;;;0.50;;
26600;SDS011;14241;49.260;10.496;2023-04-01T12:34:44;0.30;;;0.30;;
26600;SDS011;14241;49.260;10.496;2023-04-01T12:42:46;0.20;;;0.20;;
26600;SDS011;14241;49.260;10.496;2023-04-01T12:47:48;0.63;;;0.30;;
26600;SDS011;14241;49.260;10.496;2023-04-01T12:57:59;1.45;;;0.40;;
26600;SDS011;14241;49.260;10.496;2023-04-01T13:08:07;0.28;;;0.28;;
26600;SDS011;14241;49.260;10.496;2023-04-01T13:10:50;0.30;;;0.30;;
26600;SDS011;14241;49.260;10.496;2023-04-01T13:16:14;0.30;;;0.30;;
26600;SDS011;14241;49.260;10.496;2023-04-01T13:23:49;0.20;;;0.20;;
26600;SDS011;14241;49.260;10.496;2023-04-01T13:27:00;0.57;;;0.30;;
26600;SDS011;14241;49.260;10.496;2023-04-01T13:29:18;0.32;;;0.22;;
26600;SDS011;14241;49.260;10.496;2023-04-01T13:41:58;0.22;;;0.22;;
26600;SDS011;14241;49.260;10.496;2023-04-01T13:49:34;0.40;;;0.40;;
26600;SDS011;14241;49.260;10.496;2023-04-01T14:15:00;0.20;;;0.20;;
26600;SDS011;14241;49.260;10.496;2023-04-01T14:17:46;0.30;;;0.30;;
26600;SDS011;14241;49.260;10.496;2023-04-01T14:28:02;0.30;;;0.30;;
26600;SDS011;14241;49.260;10.496;2023-04-01T14:41:13;0.47;;;0.45;;
26600;SDS011;14241;49.260;10.496;2023-04-01T14:48:33;3.13;;;0.30;;
26600;SDS011;14241;49.260;10.496;2023-04-01T14:53:35;0.20;;;0.20;;
26600;SDS011;14241;49.260;10.496;2023-04-01T14:56:03;0.80;;;0.30;;
26600;SDS011;14241;49.260;10.496;2023-04-01T14:58:45;0.30;;;0.28;;
26600;SDS011;14241;49.260;10.496;2023-04-01T15:03:40;0.43;;;0.43;;
26600;SDS011;14241;49.260;10.496;2023-04-01T15:06:25;0.40;;;0.40;;
26600;SDS011;14241;49.260;10.496;2023-04-01T15:11:33;0.82;;;0.38;;
26600;SDS011;14241;49.260;10.496;2023-04-01T15:14:04;0.82;;;0.40;;
26600;SDS011;14241;49.260;10.496;2023-04-01T15:36:56;0.40;;;0.40;;
26600;SDS011;14241;49.260;10.496;2023-04-01T15:42:19;0.52;;;0.30;;
26600;SDS011;14241;49.260;10.496;2023-04-01T15:47:33;0.55;;;0.45;;
26600;SDS011;14241;49.260;10.496;2023-04-01T15:57:52;0.20;;;0.20;;
26600;SDS011;14241;49.260;10.496;2023-04-01T16:00:29;0.85;;;0.40;;
26600;SDS011;14241;49.260;10.496;2023-04-01T16:26:34;0.70;;;0.30;;
26600;SDS011;14241;49.260;10.496;2023-04-01T16:29:09;0.22;;;0.22;;
26600;SDS011;14241;49.260;10.496;2023-04-01T16:34:14;0.50;;;0.43;;
26600;SDS011;14241;49.260;10.496;2023-04-01T16:36:52;0.40;;;0.40;;
26600;SDS011;14241;49.260;10.496;2023-04-01T16:42:08;0.30;;;0.30;;
26600;SDS011;14241;49.260;10.496;2023-04-01T16:45:36;0.53;;;0.53;;
26600;SDS011;14241;49.260;10.496;2023-04-01T16:47:32;2.00;;;0.43;;
26600;SDS011;14241;49.260;10.496;2023-04-01T16:54:58;0.45;;;0.45;;
26600;SDS011;14241;49.260;10.496;2023-04-01T16:57:26;0.60;;;0.40;;
26600;SDS011;14241;49.260;10.496;2023-04-01T17:02:20;1.17;;;0.47;;
26600;SDS011;14241;49.260;10.496;2023-04-01T17:04:48;0.70;;;0.40;;
26600;SDS011;14241;49.260;10.496;2023-04-01T17:15:32;0.90;;;0.47;;
26600;SDS011;14241;49.260;10.496;2023-04-01T17:20:48;0.75;;;0.40;;
26600;SDS011;14241;49.260;10.496;2023-04-01T17:23:27;0.30;;;0.30;;
26600;SDS011;14241;49.260;10.496;2023-04-01T17:31:23;0.50;;;0.50;;
26600;SDS011;14241;49.260;10.496;2023-04-01T17:55:15;0.55;;;0.55;;
26600;SDS011;14241;49.260;10.496;2023-04-01T18:08:42;1.08;;;0.50;;
26600;SDS011;14241;49.260;10.496;2023-04-01T18:24:11;2.15;;;0.63;;
26600;SDS011;14241;49.260;10.496;2023-04-01T18:26:40;3.20;;;0.40;;
26600;SDS011;14241;49.260;10.496;2023-04-01T18:29:18;0.60;;;0.50;;
26600;SDS011;14241;49.260;10.496;2023-04-01T18:31:51;1.13;;;0.60;;
26600;SDS011;14241;49.260;10.496;2023-04-01T18:34:19;0.55;;;0.45;;
26600;SDS011;14241;49.260;10.496;2023-04-01T18:37:02;1.20;;;0.68;;
26600;SDS011;14241;49.260;10.496;2023-04-01T18:39:41;1.58;;;0.55;;
26600;SDS011;14241;49.260;10.496;2023-04-01T18:42:24;1.67;;;0.82;;
26600;SDS011;14241;49.260;10.496;2023-04-01T18:44:56;1.77;;;0.60;;
26600;SDS011;14241;49.260;10.496;2023-04-01T18:50:02;0.85;;;0.60;;
26600;SDS011;14241;49.260;10.496;2023-04-01T18:52:41;2.05;;;0.60;;
26600;SDS011;14241;49.260;10.496;2023-04-01T19:00:14;1.85;;;0.60;;
26600;SDS011;14241;49.260;10.496;2023-04-01T19:05:11;0.93;;;0.80;;
26600;SDS011;14241;49.260;10.496;2023-04-01T19:20:41;1.10;;;0.60;;
26600;SDS011;14241;49.260;10.496;2023-04-01T19:25:50;3.30;;;1.08;;
26600;SDS011;14241;49.260;10.496;2023-04-01T19:28:21;1.38;;;0.70;;
26600;SDS011;14241;49.260;10.496;2023-04-01T19:33:36;1.23;;;0.77;;
26600;SDS011;14241;49.260;10.496;2023-04-01T19:39:00;0.90;;;0.70;;
26600;SDS011;14241;49.260;10.496;2023-04-01T19:41:55;0.75;;;0.75;;
26600;SDS011;14241;49.260;10.496;2023-04-01T19:44:28;1.98;;;0.90;;
26600;SDS011;14241;49.260;10.496;2023-04-01T19:47:04;2.65;;;0.90;;
26600;SDS011;14241;49.260;10.496;2023-04-01T19:57:57;0.90;;;0.52;;
26600;SDS011;14241;49.260;10.496;2023-04-01T20:05:04;0.53;;;0.40;;
26600;SDS011;14241;49.260;10.496;2023-04-01T20:07:41;1.70;;;0.70;;
26600;SDS011;14241;49.260;10.496;2023-04-01T20:12:52;1.63;;;0.70;;
26600;SDS011;14241;49.260;10.496;2023-04-01T20:15:30;2.28;;;0.68;;
26600;SDS011;14241;49.260;10.496;2023-04-01T20:17:57;2.15;;;0.70;;
26600;SDS011;14241;49.260;10.496;2023-04-01T20:20:24;1.23;;;0.60;;
26600;SDS011;14241;49.260;10.496;2023-04-01T20:22:54;1.23;;;0.70;;
26600;SDS011;14241;49.260;10.496;2023-04-01T20:25:22;0.98;;;0.73;;
26600;SDS011;14241;49.260;10.496;2023-04-01T20:33:09;1.55;;;0.75;;
26600;SDS011;14241;49.260;10.496;2023-04-01T20:40:57;1.90;;;0.93;;
26600;SDS011;14241;49.260;10.496;2023-04-01T20:43:30;0.95;;;0.70;;
26600;SDS011;14241;49.260;10.496;2023-04-01T20:45:58;1.45;;;0.80;;
26600;SDS011;14241;49.260;10.496;2023-04-01T20:48:31;2.33;;;0.63;;
26600;SDS011;14241;49.260;10.496;2023-04-01T20:51:06;1.55;;;0.77;;
26600;SDS011;14241;49.260;10.496;2023-04-01T20:53:35;1.08;;;0.60;;
26600;SDS011;14241;49.260;10.496;2023-04-01T20:58:42;0.40;;;0.40;;
26600;SDS011;14241;49.260;10.496;2023-04-01T21:01:20;2.20;;;0.63;;
26600;SDS011;14241;49.260;10.496;2023-04-01T21:04:03;0.85;;;0.55;;
26600;SDS011;14241;49.260;10.496;2023-04-01T21:06:50;1.85;;;0.70;;
26600;SDS011;14241;49.260;10.496;2023-04-01T21:09:29;1.00;;;0.50;;
26600;SDS011;14241;49.260;10.496;2023-04-01T21:12:05;0.70;;;0.60;;
26600;SDS011;14241;49.260;10.496;2023-04-01T21:17:16;0.95;;;0.50;;
26600;SDS011;14241;49.260;10.496;2023-04-01T21:25:33;1.02;;;0.70;;
26600;SDS011;14241;49.260;10.496;2023-04-01T21:28:12;1.88;;;0.90;;
26600;SDS011;14241;49.260;10.496;2023-04-01T21:33:41;1.23;;;0.70;;
26600;SDS011;14241;49.260;10.496;2023-04-01T21:41:24;2.92;;;1.20;;
26600;SDS011;14241;49.260;10.496;2023-04-01T21:44:09;1.15;;;0.75;;
26600;SDS011;14241;49.260;10.496;2023-04-01T22:04:52;2.55;;;1.00;;
26600;SDS011;14241;49.260;10.496;2023-04-01T22:20:21;1.52;;;0.88;;
26600;SDS011;14241;49.260;10.496;2023-04-01T22:23:01;0.93;;;0.90;;
26600;SDS011;14241;49.260;10.496;2023-04-01T22:25:31;1.67;;;0.90;;
26600;SDS011;14241;49.260;10.496;2023-04-01T22:28:03;1.75;;;0.93;;
26600;SDS011;14241;49.260;10.496;2023-04-01T22:30:39;1.77;;;0.80;;
26600;SDS011;14241;49.260;10.496;2023-04-01T22:33:23;1.23;;;0.90;;
26600;SDS011;14241;49.260;10.496;2023-04-01T22:43:45;2.65;;;0.90;;
26600;SDS011;14241;49.260;10.496;2023-04-01T22:46:17;2.13;;;1.00;;
26600;SDS011;14241;49.260;10.496;2023-04-01T22:48:47;0.82;;;0.82;;
26600;SDS011;14241;49.260;10.496;2023-04-01T22:51:18;1.70;;;1.15;;
26600;SDS011;14241;49.260;10.496;2023-04-01T22:56:51;2.50;;;1.23;;
26600;SDS011;14241;49.260;10.496;2023-04-01T22:59:04;3.53;;;0.90;;
26600;SDS011;14241;49.260;10.496;2023-04-01T23:01:32;2.78;;;1.10;;
26600;SDS011;14241;49.260;10.496;2023-04-01T23:03:59;1.48;;;0.93;;
26600;SDS011;14241;49.260;10.496;2023-04-01T23:06:29;2.75;;;1.00;;
26600;SDS011;14241;49.260;10.496;2023-04-01T23:11:46;2.72;;;1.20;;
26600;SDS011;14241;49.260;10.496;2023-04-01T23:19:24;1.75;;;1.10;;
26600;SDS011;14241;49.260;10.496;2023-04-01T23:21:53;2.30;;;1.00;;
26600;SDS011;14241;49.260;10.496;2023-04-01T23:29:20;1.88;;;1.23;;
26600;SDS011;14241;49.260;10.496;2023-04-01T23:32:13;1.88;;;1.05;;
26600;SDS011;14241;49.260;10.496;2023-04-01T23:34:34;2.55;;;1.10;;
26600;SDS011;14241;49.260;10.496;2023-04-01T23:37:18;1.95;;;1.08;;
26600;SDS011;14241;49.260;10.496;2023-04-01T23:39:45;2.42;;;1.23;;
26600;SDS011;14241;49.260;10.496;2023-04-01T23:44:46;3.30;;;1.10;;
26600;SDS011;14241;49.260;10.496;2023-04-01T23:47:14;2.50;;;1.17;;
26600;SDS011;14241;49.260;10.496;2023-04-01T23:49:45;2.47;;;1.30;;
26600;SDS011;14241;49.260;10.496;2023-04-01T23:52:14;2.45;;;1.25;;
26600;SDS011;14241;49.260;10.496;2023-04-01T23:54:49;1.92;;;1.10;;
26600;SDS011;14241;49.260;10.496;2023-04-01T23:57:21;3.10;;;1.10;;
